Terminal Aerodrome Forecast
Issued by NWS Sterling, VA

Current Version | Previous Version | Text Only | Print | Product List | Glossary On
Versions: 1 2 3 4 5 6 7 8 9 10 11 12 13 14 15 16 17
000
FTUS41 KLWX 022300
TAFMRB
TAF
KMRB 022325Z 0300/0324 28004KT P6SM BKN050 BKN200
     FM030600 VRB03KT 5SM BR SCT050 BKN200
     FM030900 VRB03KT 2SM BR FEW050 SCT200
     FM031300 33005KT P6SM FEW050 SCT200
     FM032100 VRB04KT P6SM FEW050=

USA.gov is the U.S. government's official web portal to all federal, state and local government web resources and services.